OIZJ  Jask  Airport

Jask, Iran

Add Bookmark
ICAO OIZJ
Type Airport
Status Operational
Latitude
25° 39' 12" N
25.653601
Longitude
57° 47' 57" E
57.799301
Local (DST + 5) UTC (GMT + 4)
Aug 28, 2015 09:34 Aug 28, 2015 17:04
Sunrise-Sunset Local UTC
Begin Civil Twilight 05:52 01:22
Sunrise 06:16 01:46
Sunset 07:03 14:33
End Civil Twilight 07:27 14:57
VFR
VFR
MVFR
MVFR
IFR
IFR
LIFR
LIFR
Unknown
Unavailable

Current Weather

METAR Observed
OIZJ 281600Z 12008KT 6000 NSC 32/28 Q1001 Fri, Aug 28, 2015 @ 16:00 UTC
(1 Hour, 4 Minutes ago)
Wind Visibility Conditions
120° at 8 knots (15 kph) 6,003 m
  • No significant weather
Temperatures Readings Precipitation
Current Temp
32°C
90°F
Dewpoint
28°C
82°F
Heat Index
45°C
113°
Humidity 79%
Altimeter 29.56" Hg
Sea Level Pressure 1,001 mb
Field Elevation
4 m
13 ft
None Recorded
-
-

CheckWX.com is intended as a tool to help pilots better visualize weather data. It is not intended as a substitute for an official weather briefing obtained from a Flight Service Station. CheckWX.com does not meet the FAA requirements for an official pre-flight weather briefing. Therefore, it's important that pilots still call and obtain an official FSS pre-flight weather briefing.

© 2007-2015 CheckWX.com
17:04:20 UTC